Wind Gültig von: 24-02-2020 20:00 bis: 25-02-2020 10:00 Warnung für: Wind Gefahrenstufe: Gelb info button


METAR-Meldungen aus der Umgebung

   
EDDC - Dresden/Klotzsch, Germany
Entfernung von der Station bis: SW 82 km
Aktualisierung: 24-02-2020 11:20
Stark bewölkt  
Stark bewölkt  
   Wind: WSW 22.2 km/h
Wind: WSW 22.2 km/h
Temperatur: 5°C
Gefühlt: 1°C
Taupunkt: -1°C
Luftfeuchte: 66%
Luftdruck: 1020 hPa
Bewölkt: Stark bewölkt
Sichtbarkeit: More than 10 km
Bewölkung: Teilweise bewölkt 2800 ft,
Stark bewölkt 3400 ft
EDDC 241020Z 25012KT 220V280 9999 SCT028 BKN034 05/M01 Q1020 NOSIG
EPZG - Zielona Gora, Poland
Entfernung von der Station bis: NO 99 km
Aktualisierung: 24-02-2020 11:00
Stark bewölkt  
Stark bewölkt  
   Wind: WSW 24.1 km/h
Wind: WSW 24.1 km/h
Temperatur: 6°C
Gefühlt: 2°C
Taupunkt: 2°C
Luftfeuchte: 76%
Luftdruck: 1018 hPa
Bewölkt: Stark bewölkt
Sichtbarkeit: More than 10 km
Bewölkung: leicht bewölkt 1800 ft,
Stark bewölkt 2600 ft,
Stark bewölkt 3900 ft
EPZG 241000Z 25013KT 9999 FEW018 BKN026 BKN039 06/02 Q1018
ETSH - Holzdorf, Germany
Entfernung von der Station bis: WNW 110 km
Aktualisierung: 24-02-2020 11:20
Stark bewölkt  
Stark bewölkt  
   Wind: Westen 24.1 km/h
Wind: Westen 24.1 km/h
Temperatur: 7°C
Gefühlt: 3°C
Taupunkt: 1°C
Luftfeuchte: 66%
Luftdruck: 1019 hPa
Bewölkt: Stark bewölkt
Sichtbarkeit: More than 10 km
Bewölkung: leicht bewölkt 1800 ft,
Teilweise bewölkt 3500 ft,
Stark bewölkt 14000 ft
ETSH 241020Z 27013KT 9999 FEW018 SCT035 BKN140 07/01 Q1019 BLU BLU
EDDB - Berlin/Schonefel, Germany
Entfernung von der Station bis: NW 124 km
Aktualisierung: 24-02-2020 11:20
Leichter Niederschlag möglich, Stark bewölkt  
Leichter Niederschlag möglich, Stark bewölkt  
   Wind: WSW 22.2 km/h
Wind: WSW 22.2 km/h
Temperatur: 5°C
Gefühlt: 1°C
Taupunkt: 4°C
Luftfeuchte: 93%
Luftdruck: 1018 hPa
Bewölkt: Stark bewölkt
Sichtbarkeit: More than 10 km
Bewölkung: Stark bewölkt 1600 ft
EDDB 241020Z 25012KT 9999 -RA BKN016 05/04 Q1018 NOSIG
EDDT - Berlin/Tegel (fa, Germany
Entfernung von der Station bis: NW 149 km
Aktualisierung: 24-02-2020 11:20
Stark bewölkt  
Stark bewölkt  
   Wind: WSW 22.2 km/h
Wind: WSW 22.2 km/h
Temperatur: 6°C
Gefühlt: 2°C
Taupunkt: 3°C
Luftfeuchte: 81%
Luftdruck: 1018 hPa
Bewölkt: Stark bewölkt
Sichtbarkeit: More than 10 km
Bewölkung: Teilweise bewölkt 1400 ft,
Stark bewölkt 4000 ft
EDDT 241020Z 25012KT 9999 SCT014 BKN040 06/03 Q1018 NOSIG
LKVO - Vodochody, Czech Republic
Entfernung von der Station bis: S 149 km
Aktualisierung: 24-02-2020 11:00
Teilweise bewölkt  
Teilweise bewölkt  
   Wind: Westen 16.7 km/h
Wind: Westen 16.7 km/h
Temperatur: 7°C
Gefühlt: 4°C
Taupunkt: -1°C
Luftfeuchte: 57%
Luftdruck: 1022 hPa
Bewölkt: Teilweise bewölkt
Sichtbarkeit: More than 10 km
Bewölkung: Teilweise bewölkt 3200 ft
LKVO 241000Z 26009KT 9999 SCT032 07/M01 Q1022
EPWR - Wroclaw/Strachow, Poland
Entfernung von der Station bis: OSO 157 km
Aktualisierung: 24-02-2020 11:00
Stark bewölkt  
Stark bewölkt  
   Wind: Westen 37 km/h
Wind: Westen 37 km/h
Temperatur: 6°C
Gefühlt: 1°C
Taupunkt: 1°C
Luftfeuchte: 71%
Luftdruck: 1019 hPa
Bewölkt: Stark bewölkt
Sichtbarkeit: More than 10 km
Bewölkung: leicht bewölkt 2200 ft,
Stark bewölkt 3000 ft
EPWR 241000Z 28020KT 9999 FEW022 BKN030 06/01 Q1019
LKKB - Kbely, Czech Republic
Entfernung von der Station bis: S 159 km
Aktualisierung: 24-02-2020 11:00
Teilweise bewölkt  
Teilweise bewölkt  
   Wind: Westen 18.5 km/h
Wind: Westen 18.5 km/h
Temperatur: 5°C
Gefühlt: 1°C
Taupunkt: -3°C
Luftfeuchte: 57%
Luftdruck: 1022 hPa
Bewölkt: Teilweise bewölkt
Sichtbarkeit: More than 10 km
Bewölkung: Teilweise bewölkt 3300 ft
LKKB 241000Z 26010KT 230V290 9999 SCT033 05/M03 Q1022 NOSIG
 

Script entwickelt von  Saratoga-weather.org Angepasst für das Template von  Weerstation Leuven